createdAt,value
2019-05-01T00:01:33.478Z,9.93
2019-05-01T00:04:15.233Z,9.90
2019-05-01T00:06:48.599Z,9.82
2019-05-01T00:09:19.205Z,9.86
2019-05-01T00:11:53.413Z,9.86
2019-05-01T00:14:25.779Z,9.80
2019-05-01T00:16:56.415Z,9.80
2019-05-01T00:19:28.842Z,9.80
2019-05-01T00:22:01.013Z,9.79
2019-05-01T00:24:31.543Z,9.83
2019-05-01T00:27:02.287Z,9.77
2019-05-01T00:29:34.668Z,9.81
2019-05-01T00:32:06.314Z,9.83
2019-05-01T00:34:38.585Z,9.79
2019-05-01T00:37:10.749Z,9.71
2019-05-01T00:39:41.395Z,9.79
2019-05-01T00:42:12.150Z,9.74
2019-05-01T00:44:42.857Z,9.74
2019-05-01T00:47:16.855Z,9.68
2019-05-01T00:49:49.564Z,9.74
2019-05-01T00:52:20.199Z,9.72
2019-05-01T00:54:52.584Z,9.71
2019-05-01T00:57:34.530Z,9.78
2019-05-01T01:00:24.530Z,9.73
2019-05-01T01:02:55.140Z,9.77
2019-05-01T01:05:26.106Z,9.80
2019-05-01T01:08:00.310Z,9.81
2019-05-01T01:10:31.800Z,9.79
2019-05-01T01:13:02.479Z,9.80
2019-05-01T01:15:34.224Z,9.82
2019-05-01T01:18:04.973Z,9.84
2019-05-01T01:20:35.704Z,9.84
2019-05-01T01:23:06.268Z,9.77
2019-05-01T01:25:36.999Z,9.81
2019-05-01T01:28:08.043Z,9.83
2019-05-01T01:30:38.786Z,9.85
2019-05-01T01:33:11.232Z,9.82
2019-05-01T01:35:41.981Z,9.83
2019-05-01T01:38:13.114Z,9.84
2019-05-01T01:40:44.060Z,9.89
2019-05-01T01:43:34.858Z,9.84
2019-05-01T01:46:25.349Z,9.86
2019-05-01T01:48:56.524Z,9.94
2019-05-01T01:51:27.329Z,9.93
2019-05-01T01:53:59.245Z,9.92
2019-05-01T01:56:29.936Z,9.94
2019-05-01T01:59:00.528Z,9.93
2019-05-01T02:01:48.378Z,9.96
2019-05-01T02:04:22.226Z,9.98
2019-05-01T02:06:53.010Z,10.07
2019-05-01T02:09:24.073Z,10.03
2019-05-01T02:11:55.260Z,10.03
2019-05-01T02:14:26.058Z,10.07
2019-05-01T02:16:56.955Z,10.08
2019-05-01T02:19:27.608Z,10.10
2019-05-01T02:21:58.648Z,10.12
2019-05-01T02:24:30.165Z,10.16
2019-05-01T02:27:17.758Z,10.21
2019-05-01T02:29:52.075Z,10.19
2019-05-01T02:32:25.173Z,10.19
2019-05-01T02:34:56.488Z,10.21
2019-05-01T02:37:28.825Z,10.22
2019-05-01T02:40:01.472Z,10.27
2019-05-01T02:42:35.353Z,10.30
2019-05-01T02:45:06.196Z,10.34
2019-05-01T02:47:37.814Z,10.30
2019-05-01T02:50:12.411Z,10.34
2019-05-01T02:52:44.819Z,10.36
2019-05-01T02:55:19.378Z,10.41
2019-05-01T02:57:51.292Z,10.45
2019-05-01T03:00:23.444Z,10.48
2019-05-01T03:02:57.357Z,10.51
2019-05-01T03:05:30.086Z,10.53
2019-05-01T03:08:01.111Z,10.57
2019-05-01T03:10:31.793Z,10.59
2019-05-01T03:13:03.858Z,10.57
2019-05-01T03:15:36.162Z,10.64
2019-05-01T03:18:24.632Z,10.64
2019-05-01T03:20:57.172Z,10.66
2019-05-01T03:23:36.815Z,10.58
2019-05-01T03:26:07.632Z,10.62
2019-05-01T03:28:39.696Z,10.72
2019-05-01T03:31:10.815Z,10.70
2019-05-01T03:33:41.578Z,10.64
2019-05-01T03:36:13.000Z,10.62
2019-05-01T03:38:43.926Z,10.65
2019-05-01T03:41:14.920Z,10.69
2019-05-01T03:43:45.910Z,10.72
2019-05-01T03:46:17.141Z,10.80
2019-05-01T03:48:47.814Z,10.68
2019-05-01T03:51:18.611Z,10.72
2019-05-01T03:53:51.325Z,10.77
2019-05-01T03:56:21.885Z,10.73
2019-05-01T03:58:55.281Z,10.84
2019-05-01T04:01:28.480Z,10.90
2019-05-01T04:04:00.984Z,10.95
2019-05-01T04:06:32.613Z,11.05
2019-05-01T04:09:04.809Z,11.09
2019-05-01T04:11:36.332Z,11.09
2019-05-01T04:14:08.947Z,11.18
2019-05-01T04:16:41.510Z,11.08
2019-05-01T04:19:12.473Z,11.23
2019-05-01T04:21:44.965Z,11.16
2019-05-01T04:24:16.898Z,11.16
2019-05-01T04:26:48.507Z,11.07
2019-05-01T04:29:23.379Z,11.08
2019-05-01T04:32:11.948Z,11.14
2019-05-01T04:34:56.348Z,11.16
2019-05-01T04:37:27.437Z,11.27
2019-05-01T04:39:58.546Z,11.34
2019-05-01T04:42:29.197Z,11.28
2019-05-01T04:44:59.830Z,11.47
2019-05-01T04:47:31.256Z,11.59
2019-05-01T04:50:01.945Z,11.61
2019-05-01T04:52:32.710Z,11.54
2019-05-01T04:55:04.272Z,11.62
2019-05-01T04:57:35.166Z,11.64
2019-05-01T05:00:07.571Z,11.78
2019-05-01T05:03:04.085Z,11.70
2019-05-01T05:05:27.698Z,11.61
2019-05-01T05:07:59.561Z,11.73
2019-05-01T05:10:33.648Z,11.81
2019-05-01T05:13:09.603Z,11.84
2019-05-01T05:15:42.390Z,12.15
2019-05-01T05:18:15.299Z,12.25
2019-05-01T05:20:45.942Z,12.35
2019-05-01T05:23:19.083Z,12.54
2019-05-01T05:25:49.751Z,12.72
2019-05-01T05:28:23.422Z,12.93
2019-05-01T05:30:57.183Z,12.97
2019-05-01T05:33:30.683Z,12.90
2019-05-01T05:36:02.839Z,12.83
2019-05-01T05:38:50.705Z,12.99
2019-05-01T05:41:23.578Z,13.19
2019-05-01T05:43:54.690Z,13.13
2019-05-01T05:46:25.794Z,13.33
2019-05-01T05:48:56.917Z,13.43
2019-05-01T05:51:33.344Z,13.43
2019-05-01T05:54:15.571Z,13.56
2019-05-01T05:56:52.946Z,13.70
2019-05-01T05:59:30.887Z,13.62
2019-05-01T06:02:22.545Z,13.82
2019-05-01T06:04:57.371Z,13.82
2019-05-01T06:07:31.951Z,13.92
2019-05-01T06:10:08.164Z,14.01
2019-05-01T06:12:46.877Z,14.02
2019-05-01T06:15:20.764Z,14.20
2019-05-01T06:18:04.128Z,14.52
2019-05-01T06:20:41.247Z,14.87
2019-05-01T06:23:30.765Z,15.22
2019-05-01T06:26:21.907Z,15.45
2019-05-01T06:28:56.083Z,15.20
2019-05-01T06:31:25.793Z,15.12
2019-05-01T06:33:59.377Z,14.97
2019-05-01T06:36:29.903Z,15.04
2019-05-01T06:39:01.649Z,15.03
2019-05-01T06:41:39.305Z,14.85
2019-05-01T06:44:08.010Z,14.62
2019-05-01T06:46:46.321Z,14.45
2019-05-01T06:49:24.228Z,14.61
2019-05-01T06:51:59.209Z,14.75
2019-05-01T06:54:31.928Z,14.52
2019-05-01T06:57:04.315Z,14.98
2019-05-01T06:59:37.678Z,15.36
2019-05-01T07:02:11.548Z,15.33
2019-05-01T07:04:43.851Z,15.19
2019-05-01T07:07:25.251Z,15.13
2019-05-01T07:09:51.070Z,15.17
2019-05-01T07:12:28.335Z,15.05
2019-05-01T07:14:57.162Z,15.14
2019-05-01T07:17:28.336Z,15.27
2019-05-01T07:20:16.823Z,15.45
2019-05-01T07:22:49.557Z,15.73
2019-05-01T07:25:20.359Z,15.88
2019-05-01T07:27:53.858Z,16.29
2019-05-01T07:30:26.269Z,16.04
2019-05-01T07:32:57.772Z,16.39
2019-05-01T07:35:33.088Z,16.19
2019-05-01T07:38:02.322Z,16.51
2019-05-01T07:40:33.205Z,16.64
2019-05-01T07:43:11.720Z,16.95
2019-05-01T07:45:47.465Z,16.88
2019-05-01T07:48:21.013Z,16.96
2019-05-01T07:50:51.664Z,17.15
2019-05-01T07:53:23.817Z,17.91
2019-05-01T07:55:54.594Z,17.68
2019-05-01T07:58:25.254Z,17.92
2019-05-01T08:01:03.573Z,18.15
2019-05-01T08:03:38.155Z,17.95
2019-05-01T08:06:07.688Z,18.27
2019-05-01T08:08:39.674Z,18.54
2019-05-01T08:11:10.657Z,18.36
2019-05-01T08:13:41.277Z,18.63
2019-05-01T08:16:11.914Z,18.55
2019-05-01T08:19:04.013Z,18.66
2019-05-01T08:21:36.694Z,18.87
2019-05-01T08:24:08.760Z,18.87
2019-05-01T08:26:44.311Z,19.43
2019-05-01T08:29:30.466Z,19.56
2019-05-01T08:32:18.001Z,19.61
2019-05-01T08:34:49.448Z,19.38
2019-05-01T08:37:22.693Z,19.13
2019-05-01T08:39:52.602Z,19.02
2019-05-01T08:42:23.202Z,18.73
2019-05-01T08:45:05.078Z,19.21
2019-05-01T08:47:41.034Z,19.19
2019-05-01T08:50:13.539Z,18.84
2019-05-01T08:52:47.345Z,19.35
2019-05-01T08:55:16.943Z,18.75
2019-05-01T08:57:50.048Z,19.24
2019-05-01T09:00:21.255Z,18.54
2019-05-01T09:03:07.931Z,18.75
2019-05-01T09:05:33.602Z,19.49
2019-05-01T09:08:02.293Z,19.30
2019-05-01T09:10:33.437Z,19.64
2019-05-01T09:13:03.986Z,19.97
2019-05-01T09:15:36.021Z,20.20
2019-05-01T09:18:07.571Z,19.28
2019-05-01T09:20:39.955Z,19.83
2019-05-01T09:23:14.458Z,20.09
2019-05-01T09:25:50.537Z,19.70
2019-05-01T09:28:22.801Z,19.46
2019-05-01T09:31:01.732Z,19.78
2019-05-01T09:33:31.997Z,19.73
2019-05-01T09:36:02.787Z,19.43
2019-05-01T09:38:34.692Z,20.06
2019-05-01T09:41:05.822Z,20.29
2019-05-01T09:43:37.030Z,19.78
2019-05-01T09:46:07.767Z,19.22
2019-05-01T09:48:38.784Z,19.58
2019-05-01T09:51:20.349Z,19.78
2019-05-01T09:54:09.774Z,20.35
2019-05-01T09:56:41.058Z,20.24
2019-05-01T09:59:12.457Z,19.99
2019-05-01T10:01:44.122Z,20.50
2019-05-01T10:04:15.364Z,20.65
2019-05-01T10:06:47.691Z,20.57
2019-05-01T10:09:18.349Z,20.95
2019-05-01T10:11:49.135Z,21.55
2019-05-01T10:14:19.804Z,21.91
2019-05-01T10:16:50.380Z,22.52
2019-05-01T10:19:21.113Z,22.36
2019-05-01T10:21:51.728Z,22.21
2019-05-01T10:24:22.350Z,22.30
2019-05-01T10:26:55.244Z,21.92
2019-05-01T10:29:44.612Z,20.96
2019-05-01T10:32:21.493Z,21.18
2019-05-01T10:34:56.530Z,20.43
2019-05-01T10:37:28.163Z,20.71
2019-05-01T10:39:58.426Z,21.73
2019-05-01T10:42:28.951Z,20.95
2019-05-01T10:44:59.571Z,21.34
2019-05-01T10:47:30.316Z,21.04
2019-05-01T10:50:01.003Z,21.54
2019-05-01T10:52:31.602Z,22.09
2019-05-01T10:55:02.208Z,21.41
2019-05-01T10:57:35.033Z,21.97
2019-05-01T11:00:07.317Z,21.85
2019-05-01T11:02:38.227Z,22.12
2019-05-01T11:05:09.510Z,22.77
2019-05-01T11:07:40.133Z,22.32
2019-05-01T11:10:11.027Z,22.40
2019-05-01T11:12:41.702Z,22.21
2019-05-01T11:15:12.659Z,22.21
2019-05-01T11:17:43.403Z,22.32
2019-05-01T11:20:14.577Z,21.63
2019-05-01T11:22:45.377Z,21.63
2019-05-01T11:25:18.350Z,21.65
2019-05-01T11:27:49.175Z,22.10
2019-05-01T11:30:20.174Z,22.15
2019-05-01T11:33:01.406Z,21.48
2019-05-01T11:35:51.564Z,21.86
2019-05-01T11:38:41.931Z,22.02
2019-05-01T11:41:27.720Z,21.88
2019-05-01T11:44:02.617Z,21.98
2019-05-01T11:46:33.517Z,22.09
2019-05-01T11:49:04.285Z,22.09
2019-05-01T11:51:35.167Z,21.24
2019-05-01T11:54:05.842Z,21.23
2019-05-01T11:56:36.638Z,21.36
2019-05-01T11:59:07.296Z,20.83
2019-05-01T12:01:37.987Z,20.88
2019-05-01T12:04:08.667Z,20.84
2019-05-01T12:06:40.044Z,20.66
2019-05-01T12:09:11.009Z,21.43
2019-05-01T12:11:43.373Z,20.77
2019-05-01T12:14:14.130Z,21.74
2019-05-01T12:16:49.193Z,20.87
2019-05-01T12:19:20.661Z,21.13
2019-05-01T12:21:51.423Z,21.03
2019-05-01T12:24:22.736Z,21.35
2019-05-01T12:26:53.398Z,21.36
2019-05-01T12:29:24.074Z,20.61
2019-05-01T12:31:54.871Z,20.68
2019-05-01T12:34:26.519Z,20.61
2019-05-01T12:37:17.139Z,21.39
2019-05-01T12:39:47.867Z,20.69
2019-05-01T12:42:23.578Z,20.07
2019-05-01T12:44:54.409Z,20.22
2019-05-01T12:47:32.681Z,20.95
2019-05-01T12:50:03.559Z,20.81
2019-05-01T12:52:35.959Z,20.82
2019-05-01T12:55:20.932Z,20.81
2019-05-01T12:57:53.124Z,21.33
2019-05-01T13:00:43.463Z,20.42
2019-05-01T13:03:14.208Z,20.85
2019-05-01T13:05:45.093Z,20.76
2019-05-01T13:08:15.771Z,20.44
2019-05-01T13:10:46.502Z,20.52
2019-05-01T13:13:17.271Z,20.67
2019-05-01T13:15:48.066Z,20.91
2019-05-01T13:18:18.928Z,20.48
2019-05-01T13:20:49.803Z,20.67
2019-05-01T13:23:20.586Z,20.81
2019-05-01T13:25:52.541Z,20.15
2019-05-01T13:28:24.886Z,20.45
2019-05-01T13:31:13.489Z,20.03
2019-05-01T13:33:44.296Z,20.16
2019-05-01T13:36:15.026Z,20.09
2019-05-01T13:38:45.884Z,20.02
2019-05-01T13:41:16.858Z,20.17
2019-05-01T13:43:47.554Z,20.26
2019-05-01T13:46:18.579Z,20.10
2019-05-01T13:48:49.430Z,20.02
2019-05-01T13:51:22.362Z,20.07
2019-05-01T13:53:53.202Z,20.00
2019-05-01T13:56:23.883Z,19.96
2019-05-01T13:58:57.480Z,19.95
2019-05-01T14:01:28.501Z,19.57
2019-05-01T14:04:01.709Z,19.40
2019-05-01T14:06:32.474Z,19.33
2019-05-01T14:09:04.846Z,19.35
2019-05-01T14:11:35.483Z,19.47
2019-05-01T14:14:06.302Z,19.40
2019-05-01T14:16:37.068Z,19.36
2019-05-01T14:19:07.780Z,19.18
2019-05-01T14:21:40.032Z,19.06
2019-05-01T14:24:18.282Z,19.02
2019-05-01T14:26:49.099Z,18.97
2019-05-01T14:29:21.064Z,18.96
2019-05-01T14:31:51.926Z,19.01
2019-05-01T14:34:22.565Z,18.97
2019-05-01T14:36:53.459Z,18.90
2019-05-01T14:39:24.115Z,18.80
2019-05-01T14:41:54.815Z,18.72
2019-05-01T14:44:36.251Z,18.70
2019-05-01T14:46:58.263Z,18.71
2019-05-01T14:49:28.931Z,18.73
2019-05-01T14:51:59.769Z,18.71
2019-05-01T14:54:30.748Z,18.66
2019-05-01T14:57:04.622Z,18.75
2019-05-01T14:59:35.969Z,18.90
2019-05-01T15:02:06.895Z,18.99
2019-05-01T15:04:37.849Z,19.10
2019-05-01T15:07:11.151Z,19.07
2019-05-01T15:09:41.219Z,19.03
2019-05-01T15:12:13.833Z,18.99
2019-05-01T15:14:46.165Z,19.06
2019-05-01T15:17:26.225Z,19.01
2019-05-01T15:20:04.286Z,18.99
2019-05-01T15:22:36.092Z,18.98
2019-05-01T15:25:07.403Z,19.09
2019-05-01T15:27:38.194Z,19.30
2019-05-01T15:30:10.193Z,19.14
2019-05-01T15:32:40.954Z,19.18
2019-05-01T15:35:11.552Z,19.12
2019-05-01T15:37:55.793Z,18.96
2019-05-01T15:40:29.529Z,18.94
2019-05-01T15:43:01.779Z,18.90
2019-05-01T15:45:32.440Z,19.06
2019-05-01T15:48:03.060Z,19.23
2019-05-01T15:50:33.797Z,18.91
2019-05-01T15:53:04.579Z,18.89
2019-05-01T15:55:35.335Z,18.52
2019-05-01T15:58:06.117Z,18.44
2019-05-01T16:00:36.889Z,18.22
2019-05-01T16:03:07.713Z,18.17
2019-05-01T16:05:38.690Z,17.96
2019-05-01T16:08:10.136Z,17.81
2019-05-01T16:10:46.607Z,17.70
2019-05-01T16:13:17.439Z,17.67
2019-05-01T16:15:48.165Z,17.73
2019-05-01T16:18:18.801Z,17.83
2019-05-01T16:20:49.638Z,17.81
2019-05-01T16:23:20.526Z,17.63
2019-05-01T16:25:51.180Z,17.53
2019-05-01T16:28:22.226Z,17.45
2019-05-01T16:30:54.172Z,17.45
2019-05-01T16:33:25.027Z,17.42
2019-05-01T16:35:55.859Z,17.43
2019-05-01T16:38:28.545Z,17.30
2019-05-01T16:41:07.107Z,17.28
2019-05-01T16:43:38.038Z,17.26
2019-05-01T16:46:08.833Z,17.25
2019-05-01T16:48:39.703Z,17.10
2019-05-01T16:51:10.521Z,17.02
2019-05-01T16:53:41.472Z,17.10
2019-05-01T16:56:12.401Z,17.14
2019-05-01T16:58:43.250Z,17.18
2019-05-01T17:01:15.585Z,17.20
2019-05-01T17:03:54.546Z,17.13
2019-05-01T17:06:39.016Z,17.01
2019-05-01T17:09:15.933Z,16.89
2019-05-01T17:11:46.693Z,16.83
2019-05-01T17:14:18.579Z,16.80
2019-05-01T17:16:49.371Z,16.85
2019-05-01T17:19:20.112Z,16.76
2019-05-01T17:21:50.884Z,16.60
2019-05-01T17:24:22.609Z,16.58
2019-05-01T17:26:53.354Z,16.50
2019-05-01T17:29:24.004Z,16.46
2019-05-01T17:31:55.204Z,16.48
2019-05-01T17:34:30.787Z,16.38
2019-05-01T17:36:58.324Z,16.41
2019-05-01T17:39:29.054Z,16.35
2019-05-01T17:42:02.060Z,16.40
2019-05-01T17:44:32.228Z,16.27
2019-05-01T17:47:10.645Z,16.24
2019-05-01T17:49:44.862Z,16.17
2019-05-01T17:52:13.706Z,16.19
2019-05-01T17:54:44.353Z,16.14
2019-05-01T17:57:15.065Z,16.11
2019-05-01T17:59:47.317Z,16.04
2019-05-01T18:02:22.390Z,15.95
2019-05-01T18:04:54.646Z,15.84
2019-05-01T18:10:08.574Z,15.67
2019-05-01T18:12:39.266Z,15.59
2019-05-01T18:15:11.180Z,15.60
2019-05-01T18:17:43.971Z,15.48
2019-05-01T18:20:14.733Z,15.47
2019-05-01T18:22:56.694Z,15.45
2019-05-01T18:25:33.204Z,15.38
2019-05-01T18:28:08.872Z,15.30
2019-05-01T18:30:41.599Z,15.22
2019-05-01T18:33:12.185Z,15.15
2019-05-01T18:35:44.862Z,15.10
2019-05-01T18:38:16.873Z,15.08
2019-05-01T18:40:55.107Z,15.04
2019-05-01T18:43:31.773Z,15.00
2019-05-01T18:45:59.814Z,14.90
2019-05-01T18:48:30.786Z,14.93
2019-05-01T18:51:01.514Z,14.88
2019-05-01T18:53:32.805Z,14.81
2019-05-01T18:56:05.478Z,14.72
2019-05-01T18:58:36.752Z,14.69
2019-05-01T19:01:09.209Z,14.70
2019-05-01T19:03:42.390Z,14.63
2019-05-01T19:06:12.034Z,14.64
2019-05-01T19:08:42.780Z,14.69
2019-05-01T19:11:15.108Z,14.65
2019-05-01T19:13:47.761Z,14.60
2019-05-01T19:16:20.399Z,14.58
2019-05-01T19:18:54.864Z,14.50
2019-05-01T19:21:28.569Z,14.44
2019-05-01T19:24:02.516Z,14.48
2019-05-01T19:26:38.242Z,14.44
2019-05-01T19:29:13.255Z,14.40
2019-05-01T19:31:45.838Z,14.36
2019-05-01T19:34:18.412Z,14.35
2019-05-01T19:36:51.630Z,14.31
2019-05-01T19:39:24.287Z,14.26
2019-05-01T19:41:57.428Z,14.17
2019-05-01T19:44:30.145Z,14.06
2019-05-01T19:47:07.758Z,14.00
2019-05-01T19:49:37.162Z,13.91
2019-05-01T19:52:11.051Z,13.78
2019-05-01T19:54:43.729Z,13.65
2019-05-01T20:00:53.398Z,13.55
2019-05-01T20:03:30.539Z,13.49
2019-05-01T20:06:05.612Z,13.43
2019-05-01T20:08:34.507Z,13.33
2019-05-01T20:11:09.609Z,13.34
2019-05-01T20:13:40.825Z,13.37
2019-05-01T20:16:13.994Z,13.33
2019-05-01T20:18:46.258Z,13.32
2019-05-01T20:21:19.423Z,13.31
2019-05-01T20:23:51.812Z,13.33
2019-05-01T20:26:26.979Z,13.32
2019-05-01T20:29:00.394Z,13.31
2019-05-01T20:31:33.037Z,13.34
2019-05-01T20:35:34.162Z,13.41
2019-05-01T20:39:04.490Z,13.36
2019-05-01T20:41:16.193Z,13.37
2019-05-01T20:49:19.932Z,13.35
2019-05-01T20:53:35.925Z,13.31
2019-05-01T20:56:20.445Z,13.29
2019-05-01T20:58:51.107Z,13.31
2019-05-01T21:01:24.270Z,13.31
2019-05-01T21:04:10.833Z,13.26
2019-05-01T21:06:45.753Z,13.20
2019-05-01T21:09:19.031Z,13.09
2019-05-01T21:12:04.476Z,12.97
2019-05-01T21:14:23.426Z,12.89
2019-05-01T21:16:54.083Z,12.82
2019-05-01T21:19:25.723Z,12.76
2019-05-01T21:21:57.178Z,12.86
2019-05-01T21:24:29.205Z,12.95
2019-05-01T21:26:59.869Z,13.00
2019-05-01T21:29:30.600Z,13.07
2019-05-01T21:32:03.327Z,13.14
2019-05-01T21:34:33.592Z,13.17
2019-05-01T21:37:04.258Z,13.17
2019-05-01T21:39:34.824Z,13.17
2019-05-01T21:42:11.403Z,13.16
2019-05-01T21:44:38.758Z,13.07
2019-05-01T21:47:09.400Z,12.96
2019-05-01T21:49:42.977Z,12.84
2019-05-01T21:52:17.701Z,12.75
2019-05-01T21:54:50.185Z,12.70
2019-05-01T21:57:19.225Z,12.56
2019-05-01T21:59:52.353Z,12.58
2019-05-01T22:02:22.954Z,12.53
2019-05-01T22:04:53.577Z,12.42
2019-05-01T22:07:27.827Z,12.43
2019-05-01T22:09:58.512Z,12.43
2019-05-01T22:12:31.545Z,12.43
2019-05-01T22:15:12.485Z,12.43
2019-05-01T22:17:56.653Z,12.45
2019-05-01T22:20:28.940Z,12.49
2019-05-01T22:23:01.167Z,12.52
2019-05-01T22:25:33.360Z,12.58
2019-05-01T22:28:05.922Z,12.61
2019-05-01T22:30:42.247Z,12.54
2019-05-01T22:33:10.449Z,12.51
2019-05-01T22:35:43.784Z,12.54
2019-05-01T22:38:14.500Z,12.51
2019-05-01T22:41:05.560Z,12.47
2019-05-01T22:43:25.781Z,12.46
2019-05-01T22:46:01.434Z,12.40
2019-05-01T22:48:28.996Z,12.33
2019-05-01T22:51:01.288Z,12.22
2019-05-01T22:53:32.015Z,12.13
2019-05-01T22:56:04.158Z,12.03
2019-05-01T22:58:34.902Z,12.09
2019-05-01T23:01:06.027Z,12.10
2019-05-01T23:03:41.394Z,12.18
2019-05-01T23:06:10.958Z,12.30
2019-05-01T23:08:41.522Z,12.32
2019-05-01T23:11:19.563Z,12.36
2019-05-01T23:13:44.852Z,12.33
2019-05-01T23:16:16.795Z,12.35
2019-05-01T23:18:51.820Z,12.32
2019-05-01T23:21:19.865Z,12.26
2019-05-01T23:23:50.465Z,12.30
2019-05-01T23:26:21.165Z,12.28
2019-05-01T23:28:51.765Z,12.23
2019-05-01T23:31:22.512Z,12.13
2019-05-01T23:33:53.066Z,12.14
2019-05-01T23:36:24.812Z,12.09
2019-05-01T23:38:55.427Z,12.07
2019-05-01T23:41:44.626Z,12.09
2019-05-01T23:44:03.264Z,12.02
2019-05-01T23:46:30.805Z,11.99
2019-05-01T23:49:01.542Z,12.04
2019-05-01T23:51:32.167Z,12.11
2019-05-01T23:54:02.706Z,12.08
2019-05-01T23:56:34.987Z,12.07
2019-05-01T23:59:09.055Z,12.01
